This is the latest recevied weather packets stored in our database for station/object KB1FFS. If no packets are shown the sender has not sent any weather packets the latest 10 day(s).
| Time | Temp. | Humidity | Pressure | Rain* | Wind** | Luminosity | Snow |
|---|---|---|---|---|---|---|---|
| 1788117384 | 39.44° C | 30% | 1015.6 hPa | 0 mm | - | 768 W/m² | - |
| 1788117080 | 39.44° C | 30% | 1015.5 hPa | 0 mm | - | 793 W/m² | - |
| 1788116776 | 39.44° C | 31% | 1015.6 hPa | 0 mm | - | 788 W/m² | - |
| 1788116470 | 39.44° C | 31% | 1015.8 hPa | 0 mm | - | 764 W/m² | - |
| 1788116168 | 39.44° C | 30% | 1015.7 hPa | 0 mm | - | 802 W/m² | - |
| 1788115865 | 39.44° C | 30% | 1015.9 hPa | 0 mm | - | 790 W/m² | - |
| 1788115563 | 39.44° C | 30% | 1015.9 hPa | 0 mm | - | 797 W/m² | - |
| 1788115258 | 38.89° C | 32% | 1016.1 hPa | 0 mm | - | 798 W/m² | - |
| 1788114953 | 38.89° C | 31% | 1016.1 hPa | 0 mm | - | 815 W/m² | - |
| 1788114649 | 38.89° C | 32% | 1016.1 hPa | 0 mm | - | 806 W/m² | - |
| 1788114344 | 38.33° C | 33% | 1016.1 hPa | 0 mm | - | 812 W/m² | - |
| 1788114040 | 39.44° C | 32% | 1016.4 hPa | 0 mm | - | 800 W/m² | - |
| 1788113736 | 38.89° C | 34% | 1016.7 hPa | 0 mm | - | 781 W/m² | - |
| 1788113435 | 38.89° C | 32% | 1016.6 hPa | 0 mm | - | 782 W/m² | - |
| 1788113135 | 38.33° C | 34% | 1016.9 hPa | 0 mm | - | 770 W/m² | - |
| 1788112834 | 38.33° C | 33% | 1016.9 hPa | 0 mm | - | 771 W/m² | - |
| 1788112533 | 38.33° C | 33% | 1016.9 hPa | 0 mm | - | 779 W/m² | - |
| 1788112229 | 37.78° C | 34% | 1017 hPa | 0 mm | - | 768 W/m² | - |
| 1788111924 | 37.78° C | 35% | 1017.1 hPa | 0 mm | - | 763 W/m² | - |
| 1788111619 | 37.78° C | 35% | 1017.1 hPa | 0 mm | - | 751 W/m² | - |
| 1788111315 | 38.33° C | 34% | 1017.4 hPa | 0 mm | - | 751 W/m² | - |
| 1788111009 | 37.78° C | 36% | 1017.3 hPa | 0 mm | - | 749 W/m² | - |
| 1788110706 | 37.78° C | 36% | 1017.1 hPa | 0 mm | - | 741 W/m² | - |
| 1788110402 | 37.22° C | 36% | 1017.3 hPa | 0 mm | - | 732 W/m² | - |
| 1788110097 | 36.67° C | 39% | 1017.4 hPa | 0 mm | - | 728 W/m² | - |
* Rain latest hour (hover to see other rain measurements)
** Current wind speed in m/s (hover to see current wind gust speed)